Airport ICAO


00:44 UTC

6°C

Broken clouds


An affordable passengers' Moving Map for your aircraft. Made for the iPad and the iPhone
More information here

LFMN Cote D'Azur


Nice FRANCE   VFR


METAR LFMN 230030Z 33010KT 9999 BKN086 SCT200 06/M01 Q1004 NOSIG 0h14min

TAF AMD LFMN 222026Z 2221/2403 34010KT 9999 FEW030 BKN080 BECMG 2308/2310 24010KT TEMPO 2305/2315 7000 SHRA SCT025 BKN050 BECMG 2317/2319 34010KT FEW030 BECMG 2401/2403 FEW030 BKN100 4h18min





NOTAMS

OPEN